Time;durP1;ratioP1;P1;durP2;ratioP2;P2;SDS_P1;SDS_P2;PMS_P1;PMS_P2;Temp;Humidity;BMP_temperature;BMP_pressure;BME280_temperature;BME280_humidity;BME280_pressure;Samples;Min_cycle;Max_cycle;Signal;HPM_P1;HPM_P2
2023/10/21 00:00:18;;;;;;;49.13;19.67;;;9.50;99.90;;;;;;5052819;28;20037;-78
2023/10/21 00:02:43;;;;;;;36.70;18.45;;;9.60;99.90;;;;;;5053813;28;20119;-77
2023/10/21 00:05:09;;;;;;;39.75;18.52;;;9.70;99.90;;;;;;5053846;28;20048;-78
2023/10/21 00:07:34;;;;;;;39.63;18.02;;;9.70;99.90;;;;;;5052860;28;20128;-78
2023/10/21 00:10:00;;;;;;;36.80;17.73;;;9.70;99.90;;;;;;5052298;28;20041;-78
2023/10/21 00:12:26;;;;;;;47.55;18.83;;;9.80;99.90;;;;;;5053542;28;20050;-77
2023/10/21 00:14:51;;;;;;;41.30;18.05;;;9.80;99.90;;;;;;5053286;28;20523;-78
2023/10/21 00:17:17;;;;;;;40.30;18.05;;;9.80;99.90;;;;;;5053252;28;20055;-77
2023/10/21 00:19:42;;;;;;;36.20;17.25;;;9.90;99.90;;;;;;5052350;28;20041;-77
2023/10/21 00:22:08;;;;;;;35.88;17.33;;;9.90;99.90;;;;;;5052780;28;20053;-78
2023/10/21 00:24:33;;;;;;;36.22;17.23;;;9.90;99.90;;;;;;5053399;28;20051;-77
2023/10/21 00:26:59;;;;;;;39.20;17.45;;;10.00;99.90;;;;;;5052785;28;20088;-77
2023/10/21 00:29:24;;;;;;;40.63;18.23;;;10.10;99.90;;;;;;5035631;28;20087;-78
2023/10/21 00:31:50;;;;;;;37.28;18.35;;;10.10;99.90;;;;;;5036128;28;20040;-78
2023/10/21 00:34:15;;;;;;;33.80;17.05;;;10.20;99.90;;;;;;5052617;28;20040;-77
2023/10/21 00:36:41;;;;;;;38.60;16.90;;;10.30;99.90;;;;;;5051804;28;20033;-78
2023/10/21 00:39:13;;;;;;;38.28;17.20;;;10.30;99.90;;;;;;5050857;28;20183;-79
2023/10/21 00:41:39;;;;;;;40.80;18.00;;;10.40;99.90;;;;;;5052875;28;20051;-78
2023/10/21 00:44:05;;;;;;;36.35;15.77;;;10.70;99.90;;;;;;5053755;28;20044;-78
2023/10/21 00:46:31;;;;;;;37.63;16.75;;;10.70;99.90;;;;;;5053105;28;20044;-78
2023/10/21 00:48:57;;;;;;;31.13;14.88;;;10.70;99.90;;;;;;5052749;28;20141;-78
2023/10/21 00:51:25;;;;;;;31.45;15.27;;;10.70;99.90;;;;;;5052637;28;20037;-78
2023/10/21 00:53:51;;;;;;;28.60;14.15;;;10.70;99.90;;;;;;5053483;28;20447;-79
2023/10/21 00:56:17;;;;;;;29.60;14.57;;;10.60;99.90;;;;;;5052201;28;20041;-78
2023/10/21 00:58:42;;;;;;;31.73;14.45;;;10.60;99.90;;;;;;5051671;28;20512;-77
2023/10/21 01:01:10;;;;;;;33.05;14.55;;;10.60;99.90;;;;;;5052366;28;20036;-77
2023/10/21 01:03:37;;;;;;;30.38;15.48;;;10.50;99.90;;;;;;5052250;28;20053;-77
2023/10/21 01:06:03;;;;;;;31.65;16.00;;;10.50;99.90;;;;;;5052852;28;20041;-78
2023/10/21 01:08:29;;;;;;;38.08;16.67;;;10.50;99.90;;;;;;5053107;28;20447;-78
2023/10/21 01:10:55;;;;;;;37.83;17.40;;;10.50;99.90;;;;;;5051630;28;20127;-78
2023/10/21 01:13:21;;;;;;;48.72;19.40;;;10.50;99.90;;;;;;5052721;28;20068;-80
2023/10/21 01:15:46;;;;;;;41.13;19.42;;;10.50;99.90;;;;;;5052005;28;20044;-77
2023/10/21 01:18:13;;;;;;;41.13;19.42;;;10.50;99.90;;;;;;5051554;28;20029;-77
2023/10/21 01:20:39;;;;;;;47.13;19.77;;;10.50;99.90;;;;;;5050847;28;20111;-78
2023/10/21 01:23:06;;;;;;;44.70;19.77;;;10.50;99.90;;;;;;5051881;28;20056;-78
2023/10/21 01:25:32;;;;;;;48.03;19.65;;;10.50;99.90;;;;;;5052539;28;20511;-77
2023/10/21 01:27:58;;;;;;;47.40;20.45;;;10.50;99.90;;;;;;5051463;28;20072;-78
2023/10/21 01:30:24;;;;;;;48.92;19.65;;;10.50;99.90;;;;;;5050931;28;20068;-78
2023/10/21 01:32:50;;;;;;;53.60;21.95;;;10.40;99.90;;;;;;5034364;28;20044;-77
2023/10/21 01:35:16;;;;;;;50.88;20.50;;;10.30;99.90;;;;;;5035378;28;20041;-77
2023/10/21 01:37:44;;;;;;;54.15;21.38;;;10.30;99.90;;;;;;5051847;28;20041;-79
2023/10/21 01:40:10;;;;;;;55.65;22.00;;;10.20;99.90;;;;;;5051998;28;20033;-77
2023/10/21 01:42:39;;;;;;;43.90;20.15;;;10.20;99.90;;;;;;5051801;28;20088;-78
2023/10/21 01:45:05;;;;;;;48.15;20.83;;;10.10;99.90;;;;;;5052698;28;20040;-77
2023/10/21 01:47:31;;;;;;;54.05;20.90;;;10.00;99.90;;;;;;5051353;28;20443;-78
2023/10/21 01:49:58;;;;;;;50.00;20.38;;;9.90;99.90;;;;;;5051970;28;20110;-77
2023/10/21 01:52:24;;;;;;;52.15;20.08;;;9.90;99.90;;;;;;5051690;28;20072;-77
2023/10/21 01:54:50;;;;;;;51.22;20.77;;;9.90;99.90;;;;;;5052937;28;20115;-78
2023/10/21 01:57:16;;;;;;;54.03;21.73;;;9.80;99.90;;;;;;5052021;28;20048;-78
2023/10/21 01:59:42;;;;;;;45.30;19.70;;;9.80;99.90;;;;;;5051101;28;20041;-78
2023/10/21 02:02:07;;;;;;;55.08;21.27;;;9.80;99.90;;;;;;5050315;28;20049;-77
2023/10/21 02:04:33;;;;;;;51.13;20.50;;;9.80;99.90;;;;;;5051490;28;20049;-77
2023/10/21 02:06:59;;;;;;;51.17;22.00;;;9.80;99.90;;;;;;5051195;28;20068;-77
2023/10/21 02:09:24;;;;;;;57.40;21.95;;;9.70;99.90;;;;;;5050739;28;20040;-78
2023/10/21 02:11:55;;;;;;;58.92;21.65;;;9.90;99.90;;;;;;5050917;28;20135;-78
2023/10/21 02:14:22;;;;;;;53.58;21.90;;;9.70;99.90;;;;;;5050678;28;20056;-77
2023/10/21 02:16:50;;;;;;;51.42;20.83;;;9.70;99.90;;;;;;5050211;28;20049;-77
2023/10/21 02:19:15;;;;;;;59.40;22.60;;;9.70;99.90;;;;;;5050962;28;20037;-77
2023/10/21 02:21:41;;;;;;;60.72;22.00;;;9.70;99.90;;;;;;5051419;28;20515;-77
2023/10/21 02:24:07;;;;;;;52.00;20.95;;;9.60;99.90;;;;;;5034315;28;20045;-78
2023/10/21 02:26:32;;;;;;;57.63;22.40;;;9.60;99.90;;;;;;5051379;28;20473;-78
2023/10/21 02:28:58;;;;;;;58.88;22.77;;;9.60;99.90;;;;;;5050770;28;20037;-78
2023/10/21 02:31:23;;;;;;;52.58;21.75;;;9.60;99.90;;;;;;5050677;28;20041;-78
2023/10/21 02:33:49;;;;;;;60.72;22.13;;;9.50;99.90;;;;;;5050852;28;20463;-78
2023/10/21 02:36:15;;;;;;;63.58;22.75;;;9.50;99.90;;;;;;5051005;28;20195;-78
2023/10/21 02:38:41;;;;;;;59.90;22.85;;;9.50;99.90;;;;;;5051192;28;20041;-77
2023/10/21 02:41:06;;;;;;;59.63;23.70;;;9.50;99.90;;;;;;5049714;28;20076;-77
2023/10/21 02:43:33;;;;;;;59.72;22.60;;;9.50;99.90;;;;;;5051893;28;20465;-78
2023/10/21 02:46:09;;;;;;;65.30;22.92;;;9.50;99.90;;;;;;5054682;28;20037;-78
2023/10/21 02:48:35;;;;;;;64.85;23.50;;;9.40;99.90;;;;;;5054936;28;20045;-78
2023/10/21 02:51:09;;;;;;;52.85;22.38;;;9.50;99.90;;;;;;5053845;28;20520;-78
2023/10/21 02:53:35;;;;;;;60.85;23.08;;;9.50;99.90;;;;;;5054566;28;20048;-78
2023/10/21 02:56:05;;;;;;;55.22;21.90;;;9.50;99.90;;;;;;5054416;28;20032;-78
2023/10/21 02:58:31;;;;;;;63.10;22.90;;;9.50;99.90;;;;;;5053306;28;20049;-78
2023/10/21 03:00:56;;;;;;;57.22;22.55;;;9.40;99.90;;;;;;5053274;28;20045;-78
2023/10/21 03:03:22;;;;;;;68.32;23.17;;;9.40;99.90;;;;;;5053960;28;20033;-78
2023/10/21 03:05:48;;;;;;;54.72;21.23;;;9.40;99.90;;;;;;5053763;28;20044;-78
2023/10/21 03:08:14;;;;;;;58.17;21.05;;;9.40;99.90;;;;;;5054661;28;20051;-78
2023/10/21 03:10:40;;;;;;;54.42;21.17;;;9.40;99.90;;;;;;5037038;28;20466;-78
2023/10/21 03:13:06;;;;;;;56.45;22.48;;;9.40;99.90;;;;;;5054149;28;20539;-78
2023/10/21 03:15:33;;;;;;;59.28;22.40;;;9.40;99.90;;;;;;5053473;28;20080;-77
2023/10/21 03:17:58;;;;;;;56.05;20.73;;;9.40;99.90;;;;;;5053887;28;20037;-78
2023/10/21 03:20:24;;;;;;;55.40;21.98;;;9.40;99.90;;;;;;5054026;28;20094;-77
2023/10/21 03:22:49;;;;;;;62.03;21.52;;;9.30;99.90;;;;;;5054733;28;20048;-78
2023/10/21 03:25:15;;;;;;;52.42;20.67;;;9.30;99.90;;;;;;5055260;28;20496;-78
2023/10/21 03:27:40;;;;;;;50.50;20.85;;;9.40;99.90;;;;;;5054181;28;20223;-78
2023/10/21 03:30:07;;;;;;;51.28;20.92;;;9.40;99.90;;;;;;5052485;28;20037;-78
2023/10/21 03:32:33;;;;;;;47.90;20.77;;;9.40;99.90;;;;;;5051909;28;20123;-77
2023/10/21 03:34:58;;;;;;;54.20;20.58;;;9.40;99.90;;;;;;5053763;28;20551;-79
2023/10/21 03:37:24;;;;;;;50.20;20.02;;;9.40;99.90;;;;;;5054370;28;20037;-78
2023/10/21 03:39:49;;;;;;;49.33;19.95;;;9.40;99.90;;;;;;5054468;28;20040;-78
2023/10/21 03:42:15;;;;;;;47.53;19.73;;;9.40;99.90;;;;;;5054236;28;20053;-77
2023/10/21 03:44:40;;;;;;;50.75;21.05;;;9.40;99.90;;;;;;5053306;28;20049;-79
2023/10/21 03:47:06;;;;;;;55.80;21.58;;;9.50;99.90;;;;;;5052958;28;20149;-77
2023/10/21 03:49:31;;;;;;;50.25;20.75;;;9.40;99.90;;;;;;5053506;28;20124;-78
2023/10/21 03:51:57;;;;;;;55.25;21.60;;;9.40;99.90;;;;;;5053460;28;20453;-78
2023/10/21 03:54:22;;;;;;;65.45;22.10;;;9.40;99.90;;;;;;5053480;28;20068;-78
2023/10/21 03:56:48;;;;;;;51.30;21.08;;;9.30;99.90;;;;;;5054266;28;20064;-80
2023/10/21 03:59:13;;;;;;;67.18;23.15;;;9.30;99.90;;;;;;5053412;28;20512;-78
2023/10/21 04:01:39;;;;;;;52.40;21.20;;;9.30;99.90;;;;;;5053835;28;20045;-78
2023/10/21 04:04:06;;;;;;;54.90;22.33;;;9.20;99.90;;;;;;5054002;28;20047;-77
2023/10/21 04:06:31;;;;;;;51.05;21.10;;;9.20;99.90;;;;;;5053562;28;20098;-78
2023/10/21 04:08:57;;;;;;;48.33;21.42;;;9.20;99.90;;;;;;5054061;28;20400;-78
2023/10/21 04:11:22;;;;;;;54.97;21.35;;;9.20;99.90;;;;;;5053185;28;20041;-78
2023/10/21 04:13:48;;;;;;;51.28;21.42;;;9.20;99.90;;;;;;5053482;28;20044;-78
2023/10/21 04:16:14;;;;;;;48.83;20.55;;;9.20;99.90;;;;;;5053179;28;20390;-78
2023/10/21 04:18:39;;;;;;;54.42;21.73;;;9.20;99.90;;;;;;5052312;28;20041;-77
2023/10/21 04:21:05;;;;;;;49.95;21.17;;;9.20;99.90;;;;;;5052605;28;20128;-78
2023/10/21 04:23:31;;;;;;;55.58;21.90;;;9.20;99.90;;;;;;5053323;28;20033;-77
2023/10/21 04:25:56;;;;;;;48.63;20.60;;;9.20;99.90;;;;;;5053635;28;20029;-77
2023/10/21 04:28:23;;;;;;;59.03;21.20;;;9.20;99.90;;;;;;5052519;28;20048;-78
2023/10/21 04:30:50;;;;;;;47.83;20.05;;;9.20;99.90;;;;;;5051926;28;20800;-78
2023/10/21 04:33:15;;;;;;;47.17;20.73;;;9.20;99.90;;;;;;5053391;28;20052;-81
2023/10/21 04:35:41;;;;;;;51.30;20.35;;;9.10;99.90;;;;;;5052945;28;20033;-78
2023/10/21 04:38:08;;;;;;;47.13;20.08;;;9.20;99.90;;;;;;5053544;28;20079;-78
2023/10/21 04:40:34;;;;;;;57.67;21.23;;;9.10;99.90;;;;;;5052629;28;20052;-78
2023/10/21 04:43:00;;;;;;;46.08;20.45;;;9.10;99.90;;;;;;5052360;28;20044;-78
2023/10/21 04:45:26;;;;;;;47.22;19.88;;;9.10;99.90;;;;;;5053054;28;20051;-77
2023/10/21 04:47:51;;;;;;;46.25;20.50;;;9.10;99.90;;;;;;5053669;28;20056;-79
2023/10/21 04:50:17;;;;;;;43.67;19.15;;;9.10;99.90;;;;;;5051639;28;20389;-78
2023/10/21 04:52:43;;;;;;;44.85;19.75;;;9.10;99.90;;;;;;5052505;28;20066;-78
2023/10/21 04:55:09;;;;;;;50.50;19.35;;;9.10;99.90;;;;;;5052843;28;20044;-78
2023/10/21 04:57:35;;;;;;;44.10;19.00;;;9.10;99.90;;;;;;5051430;28;20048;-78
2023/10/21 05:00:01;;;;;;;46.75;19.13;;;9.10;99.90;;;;;;5051685;28;20051;-79
2023/10/21 05:02:28;;;;;;;53.70;20.50;;;9.00;99.90;;;;;;5052005;28;20045;-78
2023/10/21 05:04:53;;;;;;;45.97;18.50;;;9.10;99.90;;;;;;5051980;28;20040;-78
2023/10/21 05:07:19;;;;;;;46.30;18.58;;;9.10;99.90;;;;;;5053106;28;20036;-78
2023/10/21 05:09:45;;;;;;;51.42;19.48;;;9.10;99.90;;;;;;5051480;28;20132;-78
2023/10/21 05:12:10;;;;;;;50.75;18.90;;;9.10;99.90;;;;;;5051143;28;20135;-78
2023/10/21 05:14:36;;;;;;;43.58;18.23;;;9.10;99.90;;;;;;5051264;28;20048;-79
2023/10/21 05:17:02;;;;;;;47.30;19.27;;;9.10;99.90;;;;;;5052152;28;20033;-79
2023/10/21 05:19:28;;;;;;;40.90;18.77;;;9.10;99.90;;;;;;5052147;28;20424;-78
2023/10/21 05:21:54;;;;;;;42.75;18.23;;;9.10;99.90;;;;;;5052548;28;20048;-79
2023/10/21 05:24:20;;;;;;;42.00;17.67;;;9.10;99.90;;;;;;5053067;28;20043;-79
2023/10/21 05:26:45;;;;;;;43.60;17.48;;;9.20;99.90;;;;;;5036185;28;20037;-79
2023/10/21 05:29:12;;;;;;;41.17;18.35;;;9.10;99.90;;;;;;5051233;28;20041;-78
2023/10/21 05:31:38;;;;;;;40.53;17.45;;;9.20;99.90;;;;;;5052314;28;20060;-79
2023/10/21 05:34:03;;;;;;;40.03;17.58;;;9.10;99.90;;;;;;5035978;28;20404;-79
2023/10/21 05:36:29;;;;;;;43.80;18.58;;;9.10;99.90;;;;;;5052164;28;20042;-79
2023/10/21 05:38:55;;;;;;;40.85;17.20;;;9.20;99.90;;;;;;5052217;28;20041;-78
2023/10/21 05:41:21;;;;;;;37.13;17.30;;;9.20;99.90;;;;;;5035743;28;20450;-78
2023/10/21 05:43:46;;;;;;;43.03;17.50;;;9.20;99.90;;;;;;5052668;28;20037;-78
2023/10/21 05:46:12;;;;;;;40.83;17.40;;;9.20;99.90;;;;;;5052093;28;20350;-79
2023/10/21 05:48:38;;;;;;;39.72;17.55;;;9.20;99.90;;;;;;5052349;28;20040;-79
2023/10/21 05:51:03;;;;;;;37.47;17.08;;;9.30;99.90;;;;;;5052465;28;20485;-79
2023/10/21 05:53:29;;;;;;;35.50;16.65;;;9.30;99.90;;;;;;5052176;28;20052;-79
2023/10/21 05:55:57;;;;;;;37.58;16.67;;;9.30;99.90;;;;;;5051769;28;20169;-77
2023/10/21 05:58:24;;;;;;;36.45;16.13;;;9.30;99.90;;;;;;5035973;28;20447;-80
2023/10/21 06:00:50;;;;;;;34.17;15.43;;;9.40;99.90;;;;;;5050397;28;20059;-78
2023/10/21 06:03:15;;;;;;;33.45;15.98;;;9.40;99.90;;;;;;5051321;28;20048;-78
2023/10/21 06:05:41;;;;;;;34.08;16.83;;;9.40;99.90;;;;;;5052311;28;20048;-77
2023/10/21 06:08:07;;;;;;;37.33;17.15;;;9.40;99.90;;;;;;5052051;28;20041;-79
2023/10/21 06:10:34;;;;;;;36.22;16.23;;;9.50;99.90;;;;;;5052865;28;20408;-79
2023/10/21 06:13:00;;;;;;;32.63;15.27;;;9.50;99.90;;;;;;5052704;28;20096;-78
2023/10/21 06:15:26;;;;;;;33.90;16.05;;;9.50;99.90;;;;;;5052194;28;20052;-79
2023/10/21 06:17:51;;;;;;;31.85;15.18;;;9.50;99.90;;;;;;5054309;28;20480;-79
2023/10/21 06:20:17;;;;;;;30.70;15.25;;;9.50;99.90;;;;;;5039681;28;20044;-79
2023/10/21 06:22:42;;;;;;;35.30;15.77;;;9.60;99.90;;;;;;5057223;28;20091;-79
2023/10/21 06:25:10;;;;;;;35.00;15.13;;;9.60;99.90;;;;;;5056506;28;20037;-79
2023/10/21 06:27:36;;;;;;;34.17;15.27;;;9.60;99.90;;;;;;5055484;28;20048;-79
2023/10/21 06:30:03;;;;;;;32.67;15.32;;;9.60;99.90;;;;;;5055474;28;20044;-79
2023/10/21 06:32:28;;;;;;;33.47;15.38;;;9.60;99.90;;;;;;5056241;28;20088;-79
2023/10/21 06:34:54;;;;;;;31.60;15.70;;;9.60;99.90;;;;;;5056524;28;20037;-79
2023/10/21 06:37:20;;;;;;;36.88;15.68;;;9.70;99.90;;;;;;5056223;28;20029;-79
2023/10/21 06:39:45;;;;;;;32.25;14.75;;;9.70;99.90;;;;;;5055440;28;20088;-79
2023/10/21 06:42:11;;;;;;;30.02;14.48;;;9.70;99.90;;;;;;5055565;28;20582;-79
2023/10/21 06:44:36;;;;;;;33.25;15.05;;;9.80;99.90;;;;;;5055820;28;20045;-79
2023/10/21 06:47:02;;;;;;;33.25;15.05;;;9.80;99.90;;;;;;5055237;28;20063;-78
2023/10/21 06:49:27;;;;;;;31.35;14.85;;;9.90;99.90;;;;;;5055227;28;20041;-79
2023/10/21 06:51:55;;;;;;;33.95;14.93;;;9.90;99.90;;;;;;5056776;28;20037;-79
2023/10/21 06:54:21;;;;;;;28.95;14.13;;;9.90;99.90;;;;;;5055466;28;20036;-79
2023/10/21 06:56:47;;;;;;;29.58;14.93;;;9.90;99.90;;;;;;5055883;28;20039;-80
2023/10/21 06:59:13;;;;;;;27.77;14.05;;;10.00;99.90;;;;;;5055505;28;20116;-78
2023/10/21 07:01:40;;;;;;;34.22;15.32;;;10.00;99.90;;;;;;5055613;28;20415;-78
2023/10/21 07:04:06;;;;;;;33.42;14.45;;;10.10;99.90;;;;;;5054894;28;20086;-79
2023/10/21 07:06:32;;;;;;;32.28;14.45;;;10.10;99.90;;;;;;5056725;28;20388;-79
2023/10/21 07:08:57;;;;;;;27.33;14.80;;;10.10;99.90;;;;;;5055888;28;20131;-80
2023/10/21 07:11:24;;;;;;;31.35;15.23;;;10.10;99.90;;;;;;5055427;28;20041;-79
2023/10/21 07:13:49;;;;;;;30.52;14.35;;;10.20;99.90;;;;;;5054980;28;20040;-78
2023/10/21 07:16:15;;;;;;;27.50;14.40;;;10.30;99.90;;;;;;5038626;28;20045;-79
2023/10/21 07:18:40;;;;;;;30.92;14.18;;;10.30;99.90;;;;;;5055729;28;20049;-79
2023/10/21 07:21:09;;;;;;;29.85;13.98;;;10.30;99.90;;;;;;5056427;28;20112;-79
2023/10/21 07:23:35;;;;;;;33.08;14.48;;;10.40;99.90;;;;;;5055269;28;20051;-79
2023/10/21 07:26:02;;;;;;;25.92;14.55;;;10.50;99.90;;;;;;5055449;28;20037;-79
2023/10/21 07:28:28;;;;;;;29.88;14.35;;;10.50;99.90;;;;;;5057046;28;20040;-79
2023/10/21 07:30:54;;;;;;;25.52;14.25;;;10.60;99.90;;;;;;5057185;28;20463;-79
2023/10/21 07:33:23;;;;;;;27.08;13.73;;;10.60;99.90;;;;;;5042190;28;20075;-79
2023/10/21 07:35:50;;;;;;;30.77;14.95;;;10.70;99.90;;;;;;5055094;28;20033;-79
2023/10/21 07:38:16;;;;;;;28.95;14.55;;;10.80;99.90;;;;;;5053804;28;20048;-80
2023/10/21 07:40:43;;;;;;;31.38;14.43;;;10.80;99.90;;;;;;5054869;28;20485;-80
2023/10/21 07:43:09;;;;;;;30.10;15.00;;;10.90;99.90;;;;;;5055047;28;20041;-79
2023/10/21 07:45:35;;;;;;;29.80;14.75;;;10.90;99.90;;;;;;5054635;28;20385;-78
2023/10/21 07:48:02;;;;;;;30.00;15.02;;;10.90;99.90;;;;;;5054375;28;20048;-80
2023/10/21 07:50:27;;;;;;;27.48;13.82;;;11.00;99.90;;;;;;5054446;28;20045;-78
2023/10/21 07:52:53;;;;;;;29.98;14.57;;;11.10;99.90;;;;;;5055037;28;20095;-79
2023/10/21 07:55:18;;;;;;;29.17;15.52;;;11.00;99.90;;;;;;5054342;28;20037;-79
2023/10/21 07:57:44;;;;;;;29.25;15.07;;;11.00;99.90;;;;;;5054950;28;20037;-80
2023/10/21 08:00:14;;;;;;;35.05;13.98;;;11.10;99.90;;;;;;5054675;28;20040;-80
2023/10/21 08:02:40;;;;;;;28.65;14.32;;;11.10;99.90;;;;;;5055027;28;20043;-80
2023/10/21 08:05:07;;;;;;;30.58;14.70;;;11.10;99.90;;;;;;5054914;28;20510;-80
2023/10/21 08:07:33;;;;;;;25.70;14.82;;;11.20;99.90;;;;;;5054518;28;20497;-80
2023/10/21 08:09:58;;;;;;;25.50;14.60;;;11.30;99.90;;;;;;5054914;28;20048;-80
2023/10/21 08:12:24;;;;;;;28.58;15.15;;;11.40;99.90;;;;;;5055390;28;20048;-80
2023/10/21 08:14:50;;;;;;;23.10;13.63;;;11.40;99.90;;;;;;5055408;28;20151;-79
2023/10/21 08:17:16;;;;;;;30.83;14.85;;;11.40;99.90;;;;;;5054257;28;20033;-79
2023/10/21 08:19:41;;;;;;;25.52;13.98;;;11.50;99.90;;;;;;5054945;28;20072;-79
2023/10/21 08:22:07;;;;;;;27.73;14.52;;;11.40;99.90;;;;;;5054834;28;20045;-80
2023/10/21 08:24:32;;;;;;;27.00;14.25;;;11.50;99.90;;;;;;5038341;28;20033;-80
2023/10/21 08:26:59;;;;;;;26.80;14.40;;;11.50;99.90;;;;;;5054490;28;20057;-81
2023/10/21 08:29:25;;;;;;;27.13;14.18;;;11.50;99.90;;;;;;5053715;28;20531;-80
2023/10/21 08:31:50;;;;;;;31.67;15.02;;;11.50;99.90;;;;;;5051906;28;20040;-79
2023/10/21 08:34:16;;;;;;;29.25;14.40;;;11.50;99.90;;;;;;5053682;28;20576;-78
2023/10/21 08:36:42;;;;;;;26.95;14.30;;;11.50;99.90;;;;;;5054014;28;20509;-79
2023/10/21 08:39:08;;;;;;;29.98;15.13;;;11.50;99.90;;;;;;5052213;28;20043;-78
2023/10/21 08:41:38;;;;;;;29.38;15.90;;;11.50;99.90;;;;;;5051933;28;20037;-80
2023/10/21 08:44:06;;;;;;;24.80;14.65;;;11.60;99.90;;;;;;5054807;28;20037;-79
2023/10/21 08:46:33;;;;;;;26.67;14.18;;;11.60;99.90;;;;;;5054245;28;20060;-80
2023/10/21 08:49:00;;;;;;;29.27;14.88;;;11.70;99.90;;;;;;5054739;28;20044;-79
2023/10/21 08:51:26;;;;;;;24.80;15.23;;;11.80;99.90;;;;;;5055778;28;20451;-79
2023/10/21 08:53:54;;;;;;;27.75;16.02;;;11.90;99.90;;;;;;5053742;28;20184;-78
2023/10/21 08:56:20;;;;;;;27.75;14.55;;;12.00;99.90;;;;;;5054705;28;20032;-79
2023/10/21 08:58:46;;;;;;;25.02;14.02;;;12.10;99.90;;;;;;5054547;28;20124;-80
2023/10/21 09:01:14;;;;;;;23.98;13.93;;;12.20;99.90;;;;;;5052677;28;20041;-79
2023/10/21 09:03:41;;;;;;;24.65;14.57;;;12.30;99.90;;;;;;5052503;28;20048;-79
2023/10/21 09:06:11;;;;;;;25.75;14.55;;;12.40;99.90;;;;;;5054609;28;20037;-79
2023/10/21 09:08:41;;;;;;;28.33;14.23;;;12.50;99.90;;;;;;5054000;28;20044;-80
2023/10/21 09:11:08;;;;;;;24.88;14.55;;;12.60;99.90;;;;;;5037446;28;20040;-82
2023/10/21 09:13:38;;;;;;;22.85;13.20;;;12.70;99.90;;;;;;5057332;28;20466;-79
2023/10/21 09:16:23;;;;;;;22.50;12.60;;;12.80;99.90;;;;;;5036965;28;20045;-80
2023/10/21 09:18:59;;;;;;;21.10;12.23;;;12.90;99.90;;;;;;5054463;28;20052;-79
2023/10/21 09:21:38;;;;;;;23.00;11.90;;;12.90;99.90;;;;;;5037373;28;20037;-80
2023/10/21 09:24:05;;;;;;;18.30;11.23;;;13.00;99.90;;;;;;5054894;28;20064;-79
2023/10/21 09:26:36;;;;;;;23.75;11.75;;;13.10;99.90;;;;;;5054354;28;20044;-79
2023/10/21 09:29:11;;;;;;;21.90;11.75;;;13.20;99.90;;;;;;5053574;28;20114;-79
2023/10/21 09:31:47;;;;;;;17.45;9.98;;;13.40;99.90;;;;;;5055434;28;20475;-78
2023/10/21 09:34:26;;;;;;;18.90;9.65;;;13.60;99.90;;;;;;5053811;28;20060;-78
2023/10/21 09:36:56;;;;;;;20.30;9.73;;;13.80;99.90;;;;;;5053539;28;20033;-79
2023/10/21 09:39:23;;;;;;;19.40;9.00;;;13.80;99.90;;;;;;5053634;28;20037;-79
2023/10/21 09:41:49;;;;;;;17.58;9.15;;;13.80;99.90;;;;;;5054009;28;20040;-79
2023/10/21 09:44:15;;;;;;;13.82;8.18;;;13.80;99.90;;;;;;5054368;28;20052;-78
2023/10/21 09:46:46;;;;;;;18.85;8.50;;;13.80;99.90;;;;;;5054073;28;20091;-78
2023/10/21 09:49:13;;;;;;;15.10;8.05;;;13.80;99.90;;;;;;5054528;28;20045;-79
2023/10/21 09:52:00;;;;;;;15.23;8.27;;;13.90;99.90;;;;;;5052943;28;20037;-79
2023/10/21 09:54:47;;;;;;;17.23;7.82;;;13.90;99.90;;;;;;5057254;28;20068;-79
2023/10/21 09:57:13;;;;;;;11.05;6.75;;;13.90;99.90;;;;;;5057787;28;20041;-79
2023/10/21 09:59:39;;;;;;;9.82;6.10;;;14.00;99.90;;;;;;5057817;28;20041;-79
2023/10/21 10:02:09;;;;;;;11.88;7.03;;;14.00;99.90;;;;;;5056427;28;20106;-79
2023/10/21 10:04:35;;;;;;;10.50;5.85;;;14.00;99.90;;;;;;5058081;28;20049;-79
2023/10/21 10:07:06;;;;;;;13.40;5.95;;;14.00;99.90;;;;;;5059816;28;20116;-80
2023/10/21 10:09:34;;;;;;;8.20;5.88;;;13.90;99.90;;;;;;5059810;28;20083;-78
2023/10/21 10:12:03;;;;;;;8.25;4.80;;;13.90;99.90;;;;;;5057564;28;20111;-79
2023/10/21 10:14:28;;;;;;;10.50;5.68;;;13.90;99.90;;;;;;5057796;28;20041;-79
2023/10/21 10:16:54;;;;;;;11.38;4.78;;;13.80;99.90;;;;;;5057875;28;20067;-79
2023/10/21 10:19:40;;;;;;;10.57;4.40;;;13.80;99.90;;;;;;5040655;28;20511;-79
2023/10/21 10:22:19;;;;;;;8.80;4.50;;;13.80;99.90;;;;;;5056415;28;20036;-79
2023/10/21 10:24:54;;;;;;;9.68;4.50;;;13.80;99.90;;;;;;5040610;28;20048;-79
2023/10/21 10:27:19;;;;;;;9.32;4.25;;;13.70;99.90;;;;;;5040611;28;20041;-79
2023/10/21 10:29:50;;;;;;;6.80;4.75;;;13.70;99.90;;;;;;5057785;28;20049;-79
2023/10/21 10:32:16;;;;;;;8.38;4.85;;;13.70;99.90;;;;;;5057198;28;20048;-80
2023/10/21 10:34:52;;;;;;;6.85;4.03;;;13.70;99.90;;;;;;5056574;28;20043;-82
2023/10/21 10:37:31;;;;;;;6.15;4.25;;;13.70;99.90;;;;;;5056976;28;20082;-80
2023/10/21 10:39:57;;;;;;;6.65;4.13;;;13.70;99.90;;;;;;5056389;28;20076;-80
2023/10/21 10:42:29;;;;;;;5.32;3.80;;;13.70;99.90;;;;;;5057057;28;20052;-80
2023/10/21 10:44:55;;;;;;;5.65;3.10;;;13.70;99.90;;;;;;5056209;28;20052;-80
2023/10/21 10:47:22;;;;;;;3.97;3.05;;;13.70;99.90;;;;;;5039373;28;20060;-79
2023/10/21 10:49:58;;;;;;;5.13;2.50;;;13.70;99.90;;;;;;5055800;28;20044;-80
2023/10/21 10:52:28;;;;;;;4.70;2.95;;;13.70;99.90;;;;;;5056485;28;20045;-80
2023/10/21 10:54:53;;;;;;;3.85;2.55;;;13.70;99.90;;;;;;5056430;28;20076;-79
2023/10/21 10:57:20;;;;;;;4.88;2.63;;;13.70;99.90;;;;;;5038752;28;20045;-79
2023/10/21 10:59:47;;;;;;;5.70;2.95;;;13.80;99.90;;;;;;5055888;28;20037;-79
2023/10/21 11:02:14;;;;;;;4.70;3.20;;;13.80;99.90;;;;;;5055798;28;20488;-79
2023/10/21 11:04:40;;;;;;;5.40;2.75;;;13.80;99.90;;;;;;5055851;28;20047;-79
2023/10/21 11:07:09;;;;;;;2.35;1.70;;;13.80;99.90;;;;;;5054666;28;20185;-79
2023/10/21 11:09:34;;;;;;;3.40;1.67;;;13.60;99.90;;;;;;5055047;28;20051;-78
2023/10/21 11:12:00;;;;;;;4.07;2.03;;;13.60;99.90;;;;;;5053932;28;20409;-78
2023/10/21 11:14:27;;;;;;;3.78;1.60;;;13.60;99.90;;;;;;5053016;28;20033;-79
2023/10/21 11:16:53;;;;;;;3.75;1.60;;;13.60;99.90;;;;;;5053553;28;20072;-78
2023/10/21 11:19:18;;;;;;;2.55;1.70;;;13.70;99.90;;;;;;5054815;28;20492;-79
2023/10/21 11:21:50;;;;;;;2.58;1.50;;;13.70;99.90;;;;;;5055020;28;20535;-79
2023/10/21 11:24:15;;;;;;;3.33;1.67;;;13.80;99.90;;;;;;5058075;28;20064;-79
2023/10/21 11:26:42;;;;;;;2.22;1.50;;;13.90;99.90;;;;;;5057171;28;20037;-79
2023/10/21 11:29:08;;;;;;;2.70;1.70;;;14.00;99.90;;;;;;5055267;28;20047;-79
2023/10/21 11:31:35;;;;;;;3.10;1.83;;;14.10;99.90;;;;;;5054642;28;20044;-80
2023/10/21 11:34:15;;;;;;;3.53;1.58;;;14.30;99.90;;;;;;5053996;28;20029;-80
2023/10/21 11:36:44;;;;;;;2.78;1.58;;;14.40;99.90;;;;;;5055654;28;20039;-79
2023/10/21 11:39:13;;;;;;;5.47;1.92;;;14.40;99.90;;;;;;5054384;28;20087;-80
2023/10/21 11:41:46;;;;;;;2.72;1.35;;;14.40;99.90;;;;;;5055034;28;20045;-79
2023/10/21 11:44:12;;;;;;;2.17;1.30;;;14.30;99.90;;;;;;5054491;28;20569;-81
2023/10/21 11:46:39;;;;;;;4.65;1.48;;;14.30;99.90;;;;;;5040769;28;20083;-80
2023/10/21 11:49:04;;;;;;;2.38;1.38;;;14.30;99.90;;;;;;5056745;28;20412;-79
2023/10/21 11:51:33;;;;;;;2.35;1.20;;;14.10;99.90;;;;;;5054869;28;20040;-80
2023/10/21 11:53:59;;;;;;;2.17;1.25;;;14.10;99.90;;;;;;5053875;28;20037;-80
2023/10/21 12:00:57;;;;;;;2.03;1.20;;;13.90;99.90;;;;;;5016939;28;20077;-80
2023/10/21 12:08:11;;;;;;;2.78;1.40;;;13.60;99.90;;;;;;5054055;28;20053;-80
2023/10/21 12:10:44;;;;;;;1.85;1.20;;;13.60;99.90;;;;;;5053523;28;20079;-80
2023/10/21 12:13:37;;;;;;;3.05;1.17;;;13.50;99.90;;;;;;5052852;28;20048;-81
2023/10/21 12:26:56;;;;;;;2.17;0.90;;;13.70;99.90;;;;;;5054144;28;19936;-81
2023/10/21 12:38:05;;;;;;;2.13;0.80;;;14.60;99.90;;;;;;5058498;28;20045;-80
2023/10/21 12:40:30;;;;;;;1.27;0.73;;;14.80;99.90;;;;;;5052842;28;20095;-80
2023/10/21 12:43:23;;;;;;;3.50;0.90;;;14.80;99.90;;;;;;5053822;28;20080;-81
2023/10/21 12:45:46;;;;;;;4.43;0.90;;;14.80;99.90;;;;;;5054182;28;20107;-80
2023/10/21 12:48:19;;;;;;;2.38;1.20;;;14.80;99.90;;;;;;5037523;28;20416;-80
2023/10/21 12:50:48;;;;;;;2.57;0.80;;;14.70;99.90;;;;;;5054047;28;20094;-82
2023/10/21 12:53:13;;;;;;;3.13;1.23;;;14.60;99.90;;;;;;5053240;28;20048;-80
2023/10/21 12:55:39;;;;;;;3.03;1.40;;;14.60;99.90;;;;;;5053659;28;20033;-81
2023/10/21 12:58:04;;;;;;;3.60;1.00;;;14.60;99.90;;;;;;5053064;28;20500;-81
2023/10/21 13:00:31;;;;;;;2.80;0.85;;;14.60;99.90;;;;;;5053396;28;20072;-80
2023/10/21 13:02:57;;;;;;;3.65;1.00;;;14.80;99.90;;;;;;5053528;28;20095;-81